createdAt,value
2023-04-04T00:00:43.965Z,39.17
2023-04-04T00:03:13.385Z,38.90
2023-04-04T00:05:41.773Z,38.58
2023-04-04T00:08:09.821Z,38.55
2023-04-04T00:10:37.790Z,39.02
2023-04-04T00:13:05.931Z,38.29
2023-04-04T00:15:34.711Z,38.98
2023-04-04T00:18:02.883Z,39.13
2023-04-04T00:20:33.429Z,38.35
2023-04-04T00:23:01.443Z,38.57
2023-04-04T00:25:29.391Z,38.70
2023-04-04T00:28:00.756Z,38.73
2023-04-04T00:30:29.434Z,38.60
2023-04-04T00:32:58.199Z,38.69
2023-04-04T00:35:26.406Z,38.85
2023-04-04T00:37:55.757Z,38.77
2023-04-04T00:40:23.827Z,38.69
2023-04-04T00:42:52.108Z,38.45
2023-04-04T00:45:20.141Z,38.67
2023-04-04T00:47:48.870Z,38.64
2023-04-04T00:50:17.875Z,38.57
2023-04-04T00:52:45.885Z,38.87
2023-04-04T00:55:15.474Z,38.36
2023-04-04T00:57:43.639Z,38.93
2023-04-04T01:00:14.074Z,39.05
2023-04-04T01:02:42.121Z,38.60
2023-04-04T01:05:11.189Z,38.72
2023-04-04T01:07:40.261Z,39.00
2023-04-04T01:10:09.358Z,38.54
2023-04-04T01:12:38.954Z,38.72
2023-04-04T01:15:07.527Z,38.89
2023-04-04T01:17:36.248Z,39.27
2023-04-04T01:20:07.357Z,39.11
2023-04-04T01:22:37.341Z,39.00
2023-04-04T01:25:08.004Z,38.63
2023-04-04T01:27:39.011Z,38.45
2023-04-04T01:30:08.933Z,38.66
2023-04-04T01:32:51.516Z,39.04
2023-04-04T01:35:27.570Z,38.58
2023-04-04T01:38:06.108Z,38.59
2023-04-04T01:40:35.619Z,39.11
2023-04-04T01:43:05.420Z,38.87
2023-04-04T01:45:33.810Z,39.13
2023-04-04T01:48:01.786Z,38.67
2023-04-04T01:50:29.784Z,39.17
2023-04-04T01:52:57.683Z,38.97
2023-04-04T01:55:26.081Z,38.44
2023-04-04T01:57:53.979Z,39.20
2023-04-04T02:00:23.477Z,39.40
2023-04-04T02:02:51.728Z,39.65
2023-04-04T02:05:19.689Z,38.99
2023-04-04T02:07:50.040Z,38.76
2023-04-04T02:10:18.262Z,39.21
2023-04-04T02:12:46.854Z,39.41
2023-04-04T02:15:14.705Z,39.19
2023-04-04T02:17:48.944Z,39.40
2023-04-04T02:20:19.487Z,39.20
2023-04-04T02:22:54.335Z,38.84
2023-04-04T02:25:23.370Z,38.94
2023-04-04T02:27:51.498Z,38.96
2023-04-04T02:30:19.522Z,39.45
2023-04-04T02:32:49.121Z,38.75
2023-04-04T02:35:17.974Z,38.91
2023-04-04T02:37:47.692Z,39.22
2023-04-04T02:40:15.949Z,38.70
2023-04-04T02:42:45.001Z,39.32
2023-04-04T02:45:14.778Z,39.36
2023-04-04T02:47:43.579Z,39.27
2023-04-04T02:50:13.086Z,38.93
2023-04-04T02:52:40.984Z,39.40
2023-04-04T02:55:10.098Z,39.11
2023-04-04T02:57:38.647Z,38.89
2023-04-04T03:00:07.778Z,39.12
2023-04-04T03:02:35.816Z,38.95
2023-04-04T03:05:04.025Z,39.40
2023-04-04T03:07:33.211Z,39.70
2023-04-04T03:10:01.036Z,38.70
2023-04-04T03:12:28.890Z,39.13
2023-04-04T03:14:56.815Z,38.84
2023-04-04T03:17:24.782Z,39.13
2023-04-04T03:19:53.362Z,39.67
2023-04-04T03:22:21.316Z,39.30
2023-04-04T03:24:52.310Z,39.53
2023-04-04T03:27:20.294Z,39.63
2023-04-04T03:29:48.255Z,39.75
2023-04-04T03:32:16.172Z,39.40
2023-04-04T03:34:44.836Z,39.27
2023-04-04T03:37:12.755Z,39.45
2023-04-04T03:39:40.844Z,39.46
2023-04-04T03:42:10.149Z,39.48
2023-04-04T03:44:41.307Z,39.35
2023-04-04T03:47:09.412Z,39.39
2023-04-04T03:49:37.268Z,39.43
2023-04-04T03:52:05.460Z,39.31
2023-04-04T03:54:33.668Z,39.79
2023-04-04T03:57:01.752Z,39.61
2023-04-04T03:59:31.274Z,40.25
2023-04-04T04:01:59.360Z,40.00
2023-04-04T04:04:27.379Z,39.64
2023-04-04T04:06:55.461Z,40.46
2023-04-04T04:09:23.608Z,40.20
2023-04-04T04:11:51.700Z,40.01
2023-04-04T04:14:19.656Z,40.32
2023-04-04T04:16:48.858Z,39.60
2023-04-04T04:19:16.740Z,40.23
2023-04-04T04:21:45.054Z,40.03
2023-04-04T04:24:13.066Z,40.34
2023-04-04T04:26:43.345Z,39.89
2023-04-04T04:29:11.320Z,40.22
2023-04-04T04:31:39.417Z,40.24
2023-04-04T04:34:09.604Z,40.53
2023-04-04T04:36:38.213Z,40.12
2023-04-04T04:39:06.256Z,40.48
2023-04-04T04:41:34.065Z,40.36
2023-04-04T04:44:02.296Z,40.49
2023-04-04T04:46:30.163Z,40.54
2023-04-04T04:48:58.187Z,41.13
2023-04-04T04:51:27.560Z,40.51
2023-04-04T04:53:55.499Z,41.16
2023-04-04T04:56:23.415Z,40.95
2023-04-04T04:58:51.663Z,41.39
2023-04-04T05:01:19.655Z,41.32
2023-04-04T05:03:47.576Z,40.98
2023-04-04T05:06:15.833Z,41.46
2023-04-04T05:08:44.928Z,41.54
2023-04-04T05:11:12.675Z,41.37
2023-04-04T05:13:41.276Z,41.48
2023-04-04T05:16:09.148Z,41.52
2023-04-04T05:18:37.304Z,41.67
2023-04-04T05:21:05.403Z,41.55
2023-04-04T05:23:33.407Z,41.80
2023-04-04T05:26:03.208Z,41.79
2023-04-04T05:28:31.229Z,41.77
2023-04-04T05:30:58.939Z,41.77
2023-04-04T05:33:26.945Z,41.77
2023-04-04T05:35:57.129Z,41.90
2023-04-04T05:38:24.936Z,41.95
2023-04-04T05:40:54.550Z,42.02
2023-04-04T05:43:23.837Z,42.09
2023-04-04T05:45:51.612Z,42.08
2023-04-04T05:48:19.406Z,42.19
2023-04-04T05:50:47.384Z,42.37
2023-04-04T05:53:15.270Z,42.33
2023-04-04T05:55:43.120Z,42.21
2023-04-04T05:58:12.470Z,42.40
2023-04-04T06:00:42.946Z,42.57
2023-04-04T06:03:11.095Z,42.48
2023-04-04T06:05:38.954Z,42.56
2023-04-04T06:08:06.966Z,42.57
2023-04-04T06:10:34.687Z,42.88
2023-04-04T06:13:02.481Z,42.77
2023-04-04T06:15:30.253Z,42.71
2023-04-04T06:17:59.351Z,42.99
2023-04-04T06:20:27.319Z,42.95
2023-04-04T06:22:55.382Z,42.88
2023-04-04T06:25:23.182Z,43.04
2023-04-04T06:27:51.444Z,43.15
2023-04-04T06:30:19.598Z,43.19
2023-04-04T06:32:47.577Z,43.34
2023-04-04T06:35:19.505Z,43.11
2023-04-04T06:37:48.120Z,43.50
2023-04-04T06:40:16.318Z,43.48
2023-04-04T06:42:50.407Z,43.49
2023-04-04T06:45:18.274Z,43.24
2023-04-04T06:47:46.619Z,43.73
2023-04-04T06:50:16.522Z,43.68
2023-04-04T06:52:44.698Z,43.73
2023-04-04T06:55:13.178Z,43.64
2023-04-04T06:57:41.221Z,43.91
2023-04-04T07:00:10.278Z,43.74
2023-04-04T07:02:38.188Z,44.20
2023-04-04T07:05:06.716Z,43.76
2023-04-04T07:07:36.015Z,44.30
2023-04-04T07:10:03.792Z,44.32
2023-04-04T07:12:31.727Z,44.67
2023-04-04T07:14:59.530Z,44.18
2023-04-04T07:17:27.602Z,44.43
2023-04-04T07:19:55.352Z,44.84
2023-04-04T07:22:23.078Z,44.75
2023-04-04T07:24:52.300Z,44.58
2023-04-04T07:27:22.289Z,44.55
2023-04-04T07:29:50.218Z,44.74
2023-04-04T07:32:17.908Z,44.84
2023-04-04T07:34:47.226Z,44.86
2023-04-04T07:37:15.002Z,45.28
2023-04-04T07:39:42.914Z,45.08
2023-04-04T07:42:12.306Z,44.92
2023-04-04T07:44:40.050Z,45.30
2023-04-04T07:47:10.183Z,45.34
2023-04-04T07:49:38.485Z,45.11
2023-04-04T07:52:06.367Z,45.37
2023-04-04T07:54:34.133Z,45.35
2023-04-04T07:57:02.035Z,45.91
2023-04-04T07:59:31.311Z,45.75
2023-04-04T08:01:59.459Z,45.63
2023-04-04T08:04:27.470Z,45.58
2023-04-04T08:06:55.618Z,46.04
2023-04-04T08:09:23.468Z,45.96
2023-04-04T08:11:51.315Z,45.77
2023-04-04T08:14:19.101Z,46.14
2023-04-04T08:16:48.301Z,46.09
2023-04-04T08:19:16.669Z,46.06
2023-04-04T08:21:44.648Z,46.18
2023-04-04T08:24:12.963Z,46.27
2023-04-04T08:26:42.255Z,46.51
2023-04-04T08:29:10.485Z,46.30
2023-04-04T08:31:40.641Z,46.44
2023-04-04T08:34:10.003Z,46.46
2023-04-04T08:36:37.915Z,46.57
2023-04-04T08:39:06.941Z,46.75
2023-04-04T08:41:35.912Z,46.79
2023-04-04T08:44:05.616Z,47.15
2023-04-04T08:46:34.147Z,46.86
2023-04-04T08:49:04.802Z,46.82
2023-04-04T08:51:37.119Z,47.25
2023-04-04T08:54:05.103Z,46.92
2023-04-04T08:56:34.717Z,46.92
2023-04-04T08:59:02.968Z,47.05
2023-04-04T09:01:31.228Z,47.30
2023-04-04T09:03:59.956Z,47.56
2023-04-04T09:06:28.690Z,47.82
2023-04-04T09:08:59.534Z,47.76
2023-04-04T09:11:28.862Z,48.06
2023-04-04T09:13:58.538Z,47.56
2023-04-04T09:16:28.548Z,47.99
2023-04-04T09:18:56.597Z,48.13
2023-04-04T09:21:24.558Z,47.64
2023-04-04T09:24:01.321Z,48.33
2023-04-04T09:26:29.167Z,48.39
2023-04-04T09:28:57.012Z,48.30
2023-04-04T09:31:26.108Z,47.82
2023-04-04T09:33:55.937Z,48.51
2023-04-04T09:36:24.377Z,47.84
2023-04-04T09:38:54.965Z,48.45
2023-04-04T09:41:27.328Z,48.29
2023-04-04T09:43:58.637Z,48.49
2023-04-04T09:46:27.205Z,48.84
2023-04-04T09:48:55.587Z,48.73
2023-04-04T09:51:23.732Z,48.39
2023-04-04T09:53:52.544Z,48.74
2023-04-04T09:56:21.081Z,48.46
2023-04-04T09:59:00.701Z,48.83
2023-04-04T10:01:31.636Z,48.81
2023-04-04T10:03:59.621Z,48.95
2023-04-04T10:06:28.178Z,49.34
2023-04-04T10:08:58.454Z,49.17
2023-04-04T10:11:32.412Z,49.08
2023-04-04T10:14:03.766Z,49.31
2023-04-04T10:16:34.666Z,49.24
2023-04-04T10:19:03.834Z,49.24
2023-04-04T10:21:32.157Z,49.19
2023-04-04T10:24:02.201Z,49.29
2023-04-04T10:26:30.248Z,49.09
2023-04-04T10:28:58.302Z,49.63
2023-04-04T10:31:28.453Z,49.32
2023-04-04T10:34:08.736Z,49.50
2023-04-04T10:36:44.452Z,49.56
2023-04-04T10:39:19.727Z,49.49
2023-04-04T10:41:52.556Z,49.77
2023-04-04T10:44:26.061Z,49.28
2023-04-04T10:46:58.801Z,49.30
2023-04-04T10:49:26.941Z,49.32
2023-04-04T10:51:57.588Z,49.64
2023-04-04T10:54:27.658Z,49.48
2023-04-04T10:57:00.582Z,49.99
2023-04-04T10:59:28.663Z,49.39
2023-04-04T11:01:59.143Z,49.41
2023-04-04T11:04:33.144Z,49.66
2023-04-04T11:07:16.175Z,49.55
2023-04-04T11:09:48.327Z,50.02
2023-04-04T11:12:20.557Z,50.24
2023-04-04T11:14:59.098Z,49.59
2023-04-04T11:17:50.916Z,49.90
2023-04-04T11:20:22.442Z,50.26
2023-04-04T11:23:04.552Z,49.44
2023-04-04T11:25:34.033Z,49.96
2023-04-04T11:28:06.778Z,50.17
2023-04-04T11:30:44.076Z,49.54
2023-04-04T11:33:15.221Z,49.78
2023-04-04T11:35:48.853Z,49.50
2023-04-04T11:38:17.461Z,49.82
2023-04-04T11:40:56.250Z,49.58
2023-04-04T11:43:24.857Z,50.29
2023-04-04T11:45:52.658Z,50.12
2023-04-04T11:48:23.963Z,50.34
2023-04-04T11:50:51.929Z,50.15
2023-04-04T11:53:20.680Z,49.80
2023-04-04T11:55:50.548Z,50.13
2023-04-04T11:58:19.512Z,50.57
2023-04-04T12:00:47.812Z,50.25
2023-04-04T12:03:18.679Z,50.14
2023-04-04T12:05:48.552Z,49.90
2023-04-04T12:08:17.979Z,50.16
2023-04-04T12:10:46.049Z,50.02
2023-04-04T12:13:14.123Z,50.37
2023-04-04T12:15:43.804Z,50.35
2023-04-04T12:18:11.742Z,49.48
2023-04-04T12:20:41.411Z,50.01
2023-04-04T12:23:10.654Z,49.38
2023-04-04T12:25:40.377Z,50.06
2023-04-04T12:28:08.813Z,49.96
2023-04-04T12:30:36.820Z,49.55
2023-04-04T12:33:05.304Z,49.73
2023-04-04T12:35:33.411Z,49.75
2023-04-04T12:38:03.812Z,49.18
2023-04-04T12:40:39.728Z,49.79
2023-04-04T12:43:09.192Z,49.35
2023-04-04T12:45:44.600Z,49.66
2023-04-04T12:48:14.461Z,49.73
2023-04-04T12:50:54.189Z,49.20
2023-04-04T12:55:56.990Z,49.25
2023-04-04T12:58:26.807Z,49.01
2023-04-04T13:00:56.913Z,49.18
2023-04-04T13:03:26.277Z,49.23
2023-04-04T13:05:54.440Z,48.89
2023-04-04T13:08:22.538Z,48.94
2023-04-04T13:11:06.703Z,49.09
2023-04-04T13:13:36.454Z,49.29
2023-04-04T13:16:06.735Z,48.99
2023-04-04T13:18:38.180Z,49.18
2023-04-04T13:21:08.161Z,49.10
2023-04-04T13:23:37.546Z,49.07
2023-04-04T13:26:08.094Z,49.20
2023-04-04T13:28:36.688Z,49.36
2023-04-04T13:31:05.308Z,49.07
2023-04-04T13:33:33.347Z,48.94
2023-04-04T13:36:02.417Z,48.93
2023-04-04T13:38:30.708Z,48.97
2023-04-04T13:40:59.789Z,48.53
2023-04-04T13:43:29.524Z,48.92
2023-04-04T13:45:57.415Z,48.68
2023-04-04T13:48:25.301Z,48.44
2023-04-04T13:50:55.503Z,48.81
2023-04-04T13:53:23.643Z,48.63
2023-04-04T13:58:23.058Z,48.52
2023-04-04T14:00:52.650Z,48.53
2023-04-04T14:03:20.940Z,48.74
2023-04-04T14:05:48.874Z,48.82
2023-04-04T14:08:16.685Z,48.41
2023-04-04T14:10:44.561Z,48.55
2023-04-04T14:13:12.899Z,48.30
2023-04-04T14:15:41.570Z,48.43
2023-04-04T14:18:12.264Z,48.70
2023-04-04T14:20:40.339Z,48.58
2023-04-04T14:23:09.428Z,48.26
2023-04-04T14:25:37.200Z,48.36
2023-04-04T14:28:05.118Z,48.05
2023-04-04T14:30:32.949Z,48.68
2023-04-04T14:33:00.857Z,48.09
2023-04-04T14:35:30.396Z,48.22
2023-04-04T14:37:58.207Z,48.42
2023-04-04T14:40:26.022Z,48.25
2023-04-04T14:42:53.910Z,48.55
2023-04-04T14:45:22.305Z,48.68
2023-04-04T14:47:50.223Z,48.39
2023-04-04T14:50:18.426Z,48.21
2023-04-04T14:52:51.037Z,48.59
2023-04-04T14:55:20.384Z,48.35
2023-04-04T14:58:01.329Z,48.41
2023-04-04T15:00:31.155Z,48.51
2023-04-04T15:02:59.506Z,48.32
2023-04-04T15:05:27.392Z,48.02
2023-04-04T15:07:56.702Z,48.08
2023-04-04T15:10:24.720Z,48.33
2023-04-04T15:12:52.952Z,48.16
2023-04-04T15:15:22.362Z,48.33
2023-04-04T15:17:51.876Z,48.31
2023-04-04T15:20:19.865Z,48.38
2023-04-04T15:22:47.713Z,48.34
2023-04-04T15:25:16.951Z,48.44
2023-04-04T15:27:44.738Z,48.16
2023-04-04T15:30:15.038Z,48.17
2023-04-04T15:32:43.014Z,48.18
2023-04-04T15:35:18.499Z,48.11
2023-04-04T15:37:46.725Z,48.08
2023-04-04T15:40:16.421Z,48.36
2023-04-04T15:42:44.440Z,47.60
2023-04-04T15:45:13.926Z,48.18
2023-04-04T15:47:42.384Z,48.24
2023-04-04T15:50:12.114Z,47.82
2023-04-04T15:52:40.249Z,48.15
2023-04-04T15:55:12.414Z,47.56
2023-04-04T15:57:44.408Z,47.78
2023-04-04T16:00:14.531Z,47.11
2023-04-04T16:02:42.630Z,47.90
2023-04-04T16:05:11.180Z,47.80
2023-04-04T16:07:39.075Z,47.51
2023-04-04T16:10:08.112Z,47.62
2023-04-04T16:12:36.147Z,47.10
2023-04-04T16:15:07.077Z,47.46
2023-04-04T16:17:35.392Z,47.47
2023-04-04T16:20:03.365Z,46.85
2023-04-04T16:22:31.241Z,47.20
2023-04-04T16:24:59.114Z,46.87
2023-04-04T16:27:27.138Z,46.84
2023-04-04T16:29:55.501Z,47.16
2023-04-04T16:32:24.914Z,47.08
2023-04-04T16:34:53.151Z,47.09
2023-04-04T16:37:21.379Z,46.90
2023-04-04T16:39:51.170Z,46.94
2023-04-04T16:42:19.637Z,46.96
2023-04-04T16:44:48.143Z,46.98
2023-04-04T16:47:16.190Z,46.91
2023-04-04T16:49:47.164Z,46.84
2023-04-04T16:52:15.707Z,46.84
2023-04-04T16:54:43.831Z,46.73
2023-04-04T16:57:11.742Z,46.84
2023-04-04T16:59:39.522Z,46.91
2023-04-04T17:02:09.071Z,46.33
2023-04-04T17:04:41.127Z,46.85
2023-04-04T17:07:11.021Z,46.33
2023-04-04T17:09:39.230Z,46.28
2023-04-04T17:12:07.473Z,46.25
2023-04-04T17:14:35.738Z,46.34
2023-04-04T17:17:05.396Z,45.97
2023-04-04T17:19:35.238Z,46.24
2023-04-04T17:22:03.589Z,46.44
2023-04-04T17:24:33.292Z,46.30
2023-04-04T17:27:02.747Z,46.62
2023-04-04T17:29:30.910Z,46.07
2023-04-04T17:32:00.688Z,45.96
2023-04-04T17:34:28.747Z,45.99
2023-04-04T17:36:57.004Z,46.42
2023-04-04T17:39:29.844Z,46.21
2023-04-04T17:41:59.029Z,46.28
2023-04-04T17:44:27.096Z,45.70
2023-04-04T17:46:55.403Z,45.91
2023-04-04T17:49:23.790Z,46.14
2023-04-04T17:51:51.580Z,45.83
2023-04-04T17:54:19.358Z,45.97
2023-04-04T17:56:47.774Z,46.12
2023-04-04T17:59:17.738Z,45.73
2023-04-04T18:01:45.874Z,45.73
2023-04-04T18:04:13.794Z,46.12
2023-04-04T18:06:41.902Z,45.71
2023-04-04T18:09:10.546Z,45.84
2023-04-04T18:11:40.221Z,45.71
2023-04-04T18:14:08.747Z,45.86
2023-04-04T18:16:40.459Z,45.67
2023-04-04T18:19:09.596Z,45.80
2023-04-04T18:21:37.749Z,45.90
2023-04-04T18:24:07.441Z,45.49
2023-04-04T18:26:35.304Z,45.42
2023-04-04T18:29:03.243Z,45.44
2023-04-04T18:31:31.025Z,45.67
2023-04-04T18:34:00.930Z,45.50
2023-04-04T18:36:29.009Z,45.70
2023-04-04T18:38:56.970Z,45.31
2023-04-04T18:41:25.073Z,45.58
2023-04-04T18:43:53.016Z,45.65
2023-04-04T18:46:20.969Z,45.48
2023-04-04T18:48:48.927Z,45.43
2023-04-04T18:51:18.491Z,45.48
2023-04-04T18:53:46.394Z,45.44
2023-04-04T18:56:14.206Z,45.36
2023-04-04T18:58:42.759Z,45.38
2023-04-04T19:01:12.572Z,45.46
2023-04-04T19:03:42.912Z,45.42
2023-04-04T19:06:12.552Z,45.47
2023-04-04T19:08:42.900Z,45.30
2023-04-04T19:11:11.643Z,45.08
2023-04-04T19:13:39.725Z,45.20
2023-04-04T19:16:07.652Z,45.29
2023-04-04T19:18:36.074Z,45.12
2023-04-04T19:21:05.612Z,45.31
2023-04-04T19:23:33.792Z,45.30
2023-04-04T19:26:03.002Z,45.24
2023-04-04T19:28:31.156Z,45.21
2023-04-04T19:31:00.727Z,45.22
2023-04-04T19:33:28.731Z,45.24
2023-04-04T19:35:59.161Z,45.30
2023-04-04T19:38:29.199Z,45.34
2023-04-04T19:40:59.124Z,45.28
2023-04-04T19:43:29.970Z,45.11
2023-04-04T19:46:00.181Z,45.32
2023-04-04T19:48:53.197Z,45.32
2023-04-04T19:51:49.878Z,45.06
2023-04-04T19:54:22.008Z,45.24
2023-04-04T19:56:51.335Z,45.17
2023-04-04T20:00:01.997Z,45.34
2023-04-04T20:02:54.500Z,45.35
2023-04-04T20:05:56.484Z,45.25
2023-04-04T20:08:24.740Z,45.08
2023-04-04T20:10:56.199Z,45.18
2023-04-04T20:13:24.211Z,45.12
2023-04-04T20:16:04.990Z,45.09
2023-04-04T20:18:35.308Z,45.37
2023-04-04T20:21:07.218Z,45.11
2023-04-04T20:23:42.702Z,45.06
2023-04-04T20:26:14.385Z,45.11
2023-04-04T20:28:46.037Z,45.35
2023-04-04T20:31:18.388Z,45.09
2023-04-04T20:33:46.494Z,45.19
2023-04-04T20:36:32.645Z,44.83
2023-04-04T20:39:00.785Z,45.34
2023-04-04T20:41:28.776Z,45.22
2023-04-04T20:43:58.376Z,45.14
2023-04-04T20:46:28.741Z,45.19
2023-04-04T20:48:57.436Z,45.07
2023-04-04T20:51:29.372Z,45.20
2023-04-04T20:53:59.060Z,45.10
2023-04-04T20:56:52.394Z,45.36
2023-04-04T20:59:44.681Z,44.97
2023-04-04T21:02:20.033Z,44.96
2023-04-04T21:04:51.398Z,44.98
2023-04-04T21:07:46.479Z,45.23
2023-04-04T21:10:23.656Z,45.02
2023-04-04T21:12:51.741Z,45.19
2023-04-04T21:15:24.593Z,45.11
2023-04-04T21:17:53.759Z,45.29
2023-04-04T21:20:54.867Z,45.24
2023-04-04T21:23:32.380Z,45.22
2023-04-04T21:26:02.316Z,45.42
2023-04-04T21:28:32.604Z,45.18
2023-04-04T21:31:01.567Z,45.42
2023-04-04T21:33:30.869Z,45.36
2023-04-04T21:35:58.735Z,45.23
2023-04-04T21:38:30.659Z,45.20
2023-04-04T21:40:59.534Z,45.09
2023-04-04T21:43:27.963Z,45.67
2023-04-04T21:45:56.757Z,45.20
2023-04-04T21:48:25.392Z,45.33
2023-04-04T21:50:56.694Z,45.33
2023-04-04T21:53:24.690Z,45.27
2023-04-04T21:55:52.823Z,45.08
2023-04-04T21:58:20.925Z,44.97
2023-04-04T22:00:48.964Z,45.00
2023-04-04T22:03:17.334Z,45.50
2023-04-04T22:05:45.366Z,45.19
2023-04-04T22:08:14.700Z,44.96
2023-04-04T22:10:47.609Z,45.42
2023-04-04T22:13:17.095Z,45.08
2023-04-04T22:15:46.964Z,45.35
2023-04-04T22:18:15.863Z,45.33
2023-04-04T22:20:44.709Z,45.52
2023-04-04T22:23:17.746Z,45.70
2023-04-04T22:25:45.795Z,45.08
2023-04-04T22:28:18.090Z,45.46
2023-04-04T22:30:46.095Z,45.35
2023-04-04T22:33:13.992Z,45.54
2023-04-04T22:35:43.451Z,45.63
2023-04-04T22:38:14.535Z,45.16
2023-04-04T22:40:43.682Z,45.23
2023-04-04T22:43:11.766Z,45.53
2023-04-04T22:45:40.279Z,45.68
2023-04-04T22:48:08.408Z,45.50
2023-04-04T22:50:36.484Z,45.24
2023-04-04T22:53:12.944Z,45.69
2023-04-04T22:55:41.464Z,45.45
2023-04-04T22:58:10.727Z,45.83
2023-04-04T23:00:38.885Z,45.08
2023-04-04T23:03:07.437Z,45.40
2023-04-04T23:05:35.282Z,45.28
2023-04-04T23:08:04.498Z,45.57
2023-04-04T23:10:32.451Z,45.67
2023-04-04T23:13:00.428Z,45.53
2023-04-04T23:15:29.731Z,45.62
2023-04-04T23:17:57.648Z,45.78
2023-04-04T23:20:28.020Z,45.43
2023-04-04T23:22:56.112Z,45.80
2023-04-04T23:25:24.018Z,45.15
2023-04-04T23:27:51.829Z,45.66
2023-04-04T23:30:20.497Z,45.36
2023-04-04T23:32:50.073Z,46.07
2023-04-04T23:35:18.135Z,45.80
2023-04-04T23:37:46.218Z,45.64
2023-04-04T23:40:14.135Z,45.79
2023-04-04T23:42:41.966Z,45.29
2023-04-04T23:45:11.612Z,45.46
2023-04-04T23:47:39.698Z,45.20
2023-04-04T23:50:11.478Z,45.86
2023-04-04T23:52:40.969Z,45.80
2023-04-04T23:55:09.637Z,45.71
2023-04-04T23:57:38.860Z,45.35
